Time;durP1;ratioP1;P1;durP2;ratioP2;P2;SDS_P1;SDS_P2;PMS_P1;PMS_P2;Temp;Humidity;BMP_temperature;BMP_pressure;BME280_temperature;BME280_humidity;BME280_pressure;Samples;Min_cycle;Max_cycle;Signal;HPM_P1;HPM_P2
2023/03/06 00:01:00;;;;;;;45.90;25.92;;;;;;;4.67;84.51;97363.25;4219378;28;20206;-84
2023/03/06 00:03:03;;;;;;;49.03;26.73;;;;;;;4.65;84.77;97357.38;4174344;28;20241;-84
2023/03/06 00:05:07;;;;;;;37.47;22.95;;;;;;;4.65;85.94;97359.13;4188343;28;20244;-84
2023/03/06 00:07:12;;;;;;;30.75;18.52;;;;;;;4.62;85.86;97352.38;4184018;28;20230;-84
2023/03/06 00:09:15;;;;;;;35.83;20.13;;;;;;;4.63;85.48;97353.19;4201372;28;20783;-84
2023/03/06 00:11:18;;;;;;;31.27;19.00;;;;;;;4.63;86.40;97348.88;4190154;28;20245;-83
2023/03/06 00:13:21;;;;;;;32.88;21.02;;;;;;;4.62;86.02;97352.38;4176761;28;20607;-84
2023/03/06 00:15:26;;;;;;;29.70;19.38;;;;;;;4.63;85.94;97346.31;4183335;28;20213;-84
2023/03/06 00:17:29;;;;;;;31.95;18.90;;;;;;;4.65;85.41;97347.03;4171667;28;20211;-83
2023/03/06 00:19:32;;;;;;;32.38;18.02;;;;;;;4.64;85.78;97350.53;4186495;28;20211;-83
2023/03/06 00:21:35;;;;;;;34.78;18.90;;;;;;;4.67;84.91;97345.19;4191735;28;20701;-83
2023/03/06 00:23:40;;;;;;;29.45;18.63;;;;;;;4.70;84.86;97350.19;4192125;28;20273;-83
2023/03/06 00:25:44;;;;;;;36.55;21.75;;;;;;;4.72;84.85;97345.75;4170943;28;20214;-83
2023/03/06 00:27:47;;;;;;;34.45;20.98;;;;;;;4.72;85.43;97349.19;4168636;28;20199;-83
2023/03/06 00:29:54;;;;;;;33.33;20.35;;;;;;;4.68;85.67;97340.88;4183535;28;20205;-83
2023/03/06 00:31:58;;;;;;;33.90;18.80;;;;;;;4.68;85.22;97338.28;4193527;28;20221;-83
2023/03/06 00:34:01;;;;;;;27.98;17.00;;;;;;;4.65;84.52;97341.88;4181548;28;20199;-83
2023/03/06 00:36:05;;;;;;;28.23;17.50;;;;;;;4.63;84.53;97337.69;4189034;28;20200;-83
2023/03/06 00:38:11;;;;;;;25.15;14.95;;;;;;;4.57;84.97;97332.88;4175061;28;20206;-83
2023/03/06 00:40:17;;;;;;;29.92;17.55;;;;;;;4.51;85.42;97325.50;4178095;28;20217;-83
2023/03/06 00:42:21;;;;;;;29.65;17.05;;;;;;;4.48;85.43;97318.78;4203803;28;20645;-83
2023/03/06 00:44:24;;;;;;;31.95;17.27;;;;;;;4.49;86.36;97319.59;4184664;28;20764;-82
2023/03/06 00:46:28;;;;;;;26.15;17.02;;;;;;;4.49;85.67;97328.16;4196588;28;20630;-82
2023/03/06 00:48:31;;;;;;;29.02;17.35;;;;;;;4.49;86.72;97315.25;4181626;28;20217;-82
2023/03/06 00:50:35;;;;;;;29.65;18.02;;;;;;;4.47;86.69;97318.88;4190027;28;20297;-82
2023/03/06 00:52:38;;;;;;;29.83;18.27;;;;;;;4.44;85.43;97311.28;4190964;28;20210;-82
2023/03/06 00:54:42;;;;;;;30.30;18.65;;;;;;;4.44;85.62;97309.53;4175149;28;20206;-82
2023/03/06 00:56:47;;;;;;;29.27;17.63;;;;;;;4.44;86.49;97306.13;4194860;28;20764;-82
2023/03/06 00:58:50;;;;;;;26.10;17.02;;;;;;;4.44;85.55;97313.88;4178604;28;20300;-82
2023/03/06 01:00:54;;;;;;;25.98;16.45;;;;;;;4.44;86.76;97312.13;4177634;28;20234;-82
2023/03/06 01:02:57;;;;;;;24.95;16.98;;;;;;;4.46;86.68;97310.28;4188803;28;20202;-82
2023/03/06 01:05:01;;;;;;;26.98;16.45;;;;;;;4.48;86.91;97302.44;4187839;28;20588;-82
2023/03/06 01:07:04;;;;;;;26.08;15.80;;;;;;;4.46;86.51;97299.94;4180539;28;20730;-82
2023/03/06 01:09:07;;;;;;;22.67;15.90;;;;;;;4.42;85.64;97293.31;4190814;28;20250;-82
2023/03/06 01:11:10;;;;;;;26.35;16.45;;;;;;;4.39;86.67;97290.91;4177175;28;20207;-83
2023/03/06 01:13:14;;;;;;;21.80;14.45;;;;;;;4.35;86.51;97276.50;4189194;28;20213;-82
2023/03/06 01:15:17;;;;;;;24.25;15.35;;;;;;;4.38;86.46;97281.50;4170351;28;20234;-83
2023/03/06 01:17:21;;;;;;;26.33;16.17;;;;;;;4.37;86.82;97282.41;4171311;28;20211;-82
2023/03/06 01:19:24;;;;;;;26.60;16.80;;;;;;;4.30;86.78;97283.69;4189673;28;20221;-82
2023/03/06 01:21:27;;;;;;;26.48;16.70;;;;;;;4.30;86.22;97288.84;4188625;28;20198;-83
2023/03/06 01:23:30;;;;;;;29.40;16.23;;;;;;;4.30;87.15;97283.69;4190253;28;20222;-82
2023/03/06 01:25:34;;;;;;;26.80;16.58;;;;;;;4.29;86.70;97279.44;4196921;28;20225;-82
2023/03/06 01:27:37;;;;;;;24.70;15.80;;;;;;;4.31;87.38;97274.19;4191993;28;20623;-82
2023/03/06 01:29:41;;;;;;;23.52;14.90;;;;;;;4.31;87.42;97275.00;4196673;28;20205;-82
2023/03/06 01:31:45;;;;;;;27.33;16.50;;;;;;;4.29;86.89;97279.44;4207498;28;20714;-82
2023/03/06 01:33:48;;;;;;;25.50;14.25;;;;;;;4.30;86.94;97282.84;4195169;28;20204;-82
2023/03/06 01:35:52;;;;;;;28.10;16.35;;;;;;;4.30;85.95;97268.22;4179800;28;20290;-82
2023/03/06 01:37:55;;;;;;;25.17;16.23;;;;;;;4.31;86.60;97275.00;4174299;28;20633;-82
2023/03/06 01:39:58;;;;;;;25.25;15.52;;;;;;;4.31;86.88;97279.34;4194550;28;20217;-82
2023/03/06 01:42:01;;;;;;;26.35;16.02;;;;;;;4.35;85.92;97273.94;4172779;28;20222;-82
2023/03/06 01:44:04;;;;;;;19.88;14.13;;;;;;;4.32;85.71;97276.69;4187867;28;20249;-82
2023/03/06 01:46:26;;;;;;;27.55;16.55;;;;;;;4.31;86.39;97274.19;4173948;28;20219;-82
2023/03/06 01:48:29;;;;;;;29.90;17.38;;;;;;;4.33;86.69;97268.03;4190427;28;20256;-83
2023/03/06 01:50:33;;;;;;;27.63;15.48;;;;;;;4.31;86.83;97264.69;4186794;28;20194;-82
2023/03/06 01:52:39;;;;;;;27.27;16.38;;;;;;;4.31;87.43;97262.09;4191345;28;20209;-82
2023/03/06 01:54:45;;;;;;;24.75;15.27;;;;;;;4.29;86.77;97251.06;4186666;28;20217;-82
2023/03/06 01:56:52;;;;;;;24.83;15.73;;;;;;;4.26;86.63;97251.22;4203265;28;20672;-83
2023/03/06 01:58:56;;;;;;;24.05;14.73;;;;;;;4.28;86.62;97243.41;4174607;28;20194;-82
2023/03/06 02:00:59;;;;;;;25.60;15.88;;;;;;;4.25;86.61;97243.56;4220331;28;20200;-82
2023/03/06 02:03:07;;;;;;;26.02;15.30;;;;;;;4.26;86.93;97240.09;4185451;28;20334;-82
2023/03/06 02:05:13;;;;;;;25.52;15.52;;;;;;;4.28;86.41;97238.25;4179523;28;20755;-82
2023/03/06 02:07:18;;;;;;;29.27;17.23;;;;;;;4.23;87.58;97233.34;4185496;28;20260;-82
2023/03/06 02:09:21;;;;;;;27.75;17.10;;;;;;;4.28;86.94;97236.50;4192049;28;20209;-82
2023/03/06 02:11:29;;;;;;;26.60;15.57;;;;;;;4.25;86.88;97225.50;4177769;28;20213;-82
2023/03/06 02:13:32;;;;;;;26.80;16.40;;;;;;;4.26;86.73;97227.19;4186197;28;20638;-82
2023/03/06 02:15:35;;;;;;;23.35;16.33;;;;;;;4.25;87.72;97222.94;4178158;28;20207;-82
2023/03/06 02:17:38;;;;;;;25.05;15.82;;;;;;;4.23;86.59;97212.69;4184089;28;20249;-82
2023/03/06 02:19:51;;;;;;;24.58;15.63;;;;;;;4.23;86.82;97210.13;4173241;28;20715;-82
2023/03/06 02:21:55;;;;;;;33.60;16.48;;;;;;;4.25;87.30;97212.63;4187685;28;20226;-82
2023/03/06 02:24:11;;;;;;;28.35;15.63;;;;;;;4.27;86.36;97210.78;4184203;28;20236;-82
2023/03/06 02:26:16;;;;;;;27.45;15.48;;;;;;;4.25;87.54;97204.88;4176258;28;20230;-82
2023/03/06 02:28:22;;;;;;;27.08;17.13;;;;;;;4.23;86.91;97204.97;4176444;28;20268;-82
2023/03/06 02:30:26;;;;;;;28.10;15.65;;;;;;;4.24;87.28;97195.50;4185451;28;20638;-82
2023/03/06 02:32:30;;;;;;;25.90;16.17;;;;;;;4.24;87.16;97196.31;4167838;28;20199;-82
2023/03/06 02:34:53;;;;;;;27.92;16.15;;;;;;;4.23;86.49;97201.56;4176153;28;20240;-82
2023/03/06 02:36:58;;;;;;;25.58;15.82;;;;;;;4.25;87.50;97190.25;4219022;27;20205;-82
2023/03/06 02:39:01;;;;;;;25.67;15.60;;;;;;;4.25;87.47;97191.97;4193540;28;20252;-82
2023/03/06 02:41:07;;;;;;;25.02;15.35;;;;;;;4.25;87.01;97184.22;4175910;28;20207;-82
2023/03/06 02:43:12;;;;;;;26.48;15.52;;;;;;;4.23;87.08;97189.47;4189613;28;20212;-82
2023/03/06 02:45:19;;;;;;;25.40;15.60;;;;;;;4.24;86.86;97198.91;4190279;28;20240;-82
2023/03/06 02:47:22;;;;;;;26.17;16.23;;;;;;;4.24;87.49;97186.00;4177376;28;20206;-82
2023/03/06 02:49:25;;;;;;;27.33;15.98;;;;;;;4.23;86.27;97186.91;4189154;28;20250;-82
2023/03/06 02:51:28;;;;;;;28.08;16.05;;;;;;;4.22;87.04;97187.00;4175739;28;20207;-82
2023/03/06 02:53:31;;;;;;;22.55;15.68;;;;;;;4.19;87.09;97179.44;4176969;28;20213;-82
2023/03/06 02:55:35;;;;;;;24.85;15.45;;;;;;;4.20;86.35;97183.69;4189767;28;20209;-82
2023/03/06 02:57:38;;;;;;;23.13;15.18;;;;;;;4.17;87.19;97183.03;4184402;28;20727;-82
2023/03/06 02:59:43;;;;;;;23.35;15.40;;;;;;;4.15;86.62;97174.53;4172511;28;20206;-82
2023/03/06 03:01:47;;;;;;;23.55;14.73;;;;;;;4.14;87.44;97176.28;4187242;28;20216;-82
2023/03/06 03:03:50;;;;;;;23.35;14.30;;;;;;;4.12;87.71;97185.03;4171749;28;20202;-82
2023/03/06 03:05:55;;;;;;;21.85;14.23;;;;;;;4.09;87.48;97172.31;4185428;28;20242;-82
2023/03/06 03:08:03;;;;;;;27.90;14.35;;;;;;;4.09;87.23;97174.88;4174177;28;20201;-82
2023/03/06 03:10:07;;;;;;;20.85;13.70;;;;;;;4.05;87.32;97168.25;4185784;28;20206;-82
2023/03/06 03:12:10;;;;;;;23.63;13.90;;;;;;;4.05;88.16;97170.84;4202115;28;20227;-82
2023/03/06 03:14:15;;;;;;;23.00;16.02;;;;;;;4.07;88.39;97174.16;4202573;28;20250;-82
2023/03/06 03:16:22;;;;;;;22.15;14.90;;;;;;;4.05;87.17;97173.41;4175012;28;20303;-84
2023/03/06 03:18:26;;;;;;;23.45;14.60;;;;;;;4.04;86.63;97167.41;4174852;28;20272;-84
2023/03/06 03:20:29;;;;;;;24.90;15.02;;;;;;;4.00;87.15;97158.22;4187310;28;20255;-82
2023/03/06 03:22:32;;;;;;;21.88;14.38;;;;;;;4.01;88.14;97159.84;4177049;28;20213;-82
2023/03/06 03:24:35;;;;;;;26.63;15.32;;;;;;;4.01;87.45;97161.59;4187530;28;20212;-82
2023/03/06 03:26:39;;;;;;;21.63;14.02;;;;;;;4.02;87.28;97169.25;4187478;28;20888;-82
2023/03/06 03:28:47;;;;;;;24.05;15.40;;;;;;;4.04;87.21;97166.59;4172593;28;20682;-82
2023/03/06 03:30:52;;;;;;;24.25;14.35;;;;;;;4.01;87.41;97162.44;4197745;28;20212;-82
2023/03/06 03:32:57;;;;;;;26.38;15.10;;;;;;;4.01;87.31;97177.09;4200334;28;20356;-82
2023/03/06 03:35:00;;;;;;;24.30;14.85;;;;;;;4.01;87.69;97165.00;4182635;28;20233;-82
2023/03/06 03:37:05;;;;;;;22.38;14.50;;;;;;;4.02;88.19;97163.28;4169826;28;20849;-82
2023/03/06 03:39:09;;;;;;;22.52;13.75;;;;;;;4.00;87.67;97160.78;4182961;28;20201;-82
2023/03/06 03:41:12;;;;;;;25.92;14.82;;;;;;;3.99;87.50;97166.03;4186555;28;20209;-82
2023/03/06 03:43:17;;;;;;;28.02;17.20;;;;;;;4.02;87.89;97155.53;4173272;28;20202;-82
2023/03/06 03:45:21;;;;;;;22.88;14.90;;;;;;;4.01;87.66;97154.69;4186710;28;20636;-82
2023/03/06 03:47:24;;;;;;;26.23;14.65;;;;;;;4.00;87.87;97154.78;4171343;28;20230;-82
2023/03/06 03:49:29;;;;;;;25.73;15.60;;;;;;;4.00;87.36;97154.78;4175749;28;20384;-82
2023/03/06 03:51:32;;;;;;;23.92;15.27;;;;;;;4.00;87.48;97149.63;4199208;28;20213;-82
2023/03/06 03:53:36;;;;;;;22.05;14.80;;;;;;;4.01;86.31;97156.44;4174600;28;20264;-82
2023/03/06 03:55:39;;;;;;;24.70;16.10;;;;;;;4.02;87.88;97152.97;4166010;28;20217;-82
2023/03/06 03:57:43;;;;;;;26.67;14.80;;;;;;;3.99;87.08;97145.41;4200522;28;20205;-82
2023/03/06 03:59:47;;;;;;;23.90;15.20;;;;;;;3.97;87.30;97149.81;4203207;28;20212;-82
2023/03/06 04:02:24;;;;;;;22.67;14.45;;;;;;;3.92;87.51;97149.25;4184686;28;20201;-82
2023/03/06 04:04:49;;;;;;;22.70;13.95;;;;;;;3.88;87.36;97153.75;4177327;28;20202;-82
2023/03/06 04:06:52;;;;;;;22.65;14.07;;;;;;;3.88;87.67;97142.63;4203366;28;20289;-82
2023/03/06 04:08:55;;;;;;;25.70;15.20;;;;;;;3.86;86.83;97142.72;4171454;28;20198;-82
2023/03/06 04:10:59;;;;;;;22.92;14.00;;;;;;;3.86;87.68;97136.69;4189136;28;20210;-82
2023/03/06 04:13:03;;;;;;;24.88;15.85;;;;;;;3.86;87.74;97139.28;4179942;28;20281;-82
2023/03/06 04:15:08;;;;;;;27.23;15.25;;;;;;;3.86;87.44;97134.97;4188775;28;20220;-82
2023/03/06 04:17:12;;;;;;;27.13;15.75;;;;;;;3.88;88.45;97134.88;4206803;28;20209;-82
2023/03/06 04:19:15;;;;;;;26.42;16.27;;;;;;;3.91;88.21;97124.38;4178669;28;20214;-82
2023/03/06 04:21:20;;;;;;;26.38;17.75;;;;;;;3.90;88.08;97115.00;4194152;28;20197;-82
2023/03/06 04:23:24;;;;;;;25.73;16.15;;;;;;;3.87;88.54;97128.06;4204511;28;20244;-82
2023/03/06 04:25:27;;;;;;;26.05;15.55;;;;;;;3.86;87.99;97126.38;4187038;28;20260;-82
2023/03/06 04:27:30;;;;;;;24.45;15.77;;;;;;;3.84;87.35;97120.50;4188717;28;20236;-82
2023/03/06 04:29:34;;;;;;;25.35;14.90;;;;;;;3.83;87.74;97122.25;4174356;28;20225;-82
2023/03/06 04:31:37;;;;;;;27.58;16.23;;;;;;;3.86;88.20;97127.25;4191493;28;20557;-82
2023/03/06 04:33:41;;;;;;;22.42;14.60;;;;;;;3.87;88.00;97125.47;4185534;28;20284;-82
2023/03/06 04:35:44;;;;;;;24.75;14.10;;;;;;;3.88;87.69;97120.25;4176968;28;20205;-82
2023/03/06 04:37:54;;;;;;;23.85;14.48;;;;;;;3.89;87.52;97119.31;4179146;28;20594;-82
2023/03/06 04:39:59;;;;;;;22.63;14.18;;;;;;;3.90;87.69;97120.16;4207393;28;20579;-82
2023/03/06 04:42:02;;;;;;;26.85;15.20;;;;;;;3.94;87.76;97114.72;4189383;28;20304;-82
2023/03/06 04:44:06;;;;;;;21.73;13.65;;;;;;;3.97;87.64;97113.69;4191734;28;20210;-82
2023/03/06 04:46:09;;;;;;;28.15;17.60;;;;;;;3.98;87.02;97111.03;4192488;28;20252;-82
2023/03/06 04:48:13;;;;;;;27.63;16.15;;;;;;;3.98;86.72;97115.38;4196136;28;20214;-82
2023/03/06 04:50:17;;;;;;;30.25;16.88;;;;;;;3.96;87.31;97112.06;4188069;28;20204;-82
2023/03/06 04:52:21;;;;;;;23.95;15.05;;;;;;;3.92;87.52;97111.38;4189612;28;20209;-82
2023/03/06 04:54:25;;;;;;;23.50;14.48;;;;;;;3.87;87.53;97110.00;4187759;28;20235;-82
2023/03/06 04:56:29;;;;;;;26.33;14.77;;;;;;;3.83;88.25;97103.34;4186679;28;20220;-82
2023/03/06 04:58:32;;;;;;;25.35;15.75;;;;;;;3.82;87.16;97104.31;4220864;28;20207;-84
2023/03/06 05:00:35;;;;;;;23.75;14.60;;;;;;;3.81;87.95;97108.59;4174873;28;20244;-84
2023/03/06 05:02:38;;;;;;;26.30;15.65;;;;;;;3.84;87.74;97105.03;4187642;28;20202;-84
2023/03/06 05:04:41;;;;;;;23.75;14.93;;;;;;;3.83;87.31;97105.94;4188780;28;20689;-84
2023/03/06 05:06:44;;;;;;;24.80;15.15;;;;;;;3.84;87.39;97107.59;4195039;28;20230;-84
2023/03/06 05:08:48;;;;;;;43.42;30.35;;;;;;;3.84;87.34;97100.69;4204054;28;20208;-84
2023/03/06 05:10:56;;;;;;;45.78;32.65;;;;;;;3.82;87.17;97105.13;4176704;28;20260;-82
2023/03/06 05:12:59;;;;;;;63.65;46.88;;;;;;;3.83;87.72;97103.34;4169521;28;20206;-82
2023/03/06 05:15:03;;;;;;;55.67;36.20;;;;;;;3.84;87.79;97098.13;4168385;28;20202;-82
2023/03/06 05:17:06;;;;;;;40.83;27.67;;;;;;;3.83;88.31;97106.78;4186122;28;20670;-82
2023/03/06 05:19:10;;;;;;;31.30;20.48;;;;;;;3.86;88.06;97104.03;4218929;28;20724;-82
2023/03/06 05:21:13;;;;;;;38.72;27.95;;;;;;;3.87;86.91;97104.84;4209420;28;20224;-82
2023/03/06 05:23:16;;;;;;;29.02;17.55;;;;;;;3.90;87.81;97099.53;4176068;28;20222;-82
2023/03/06 05:25:19;;;;;;;27.88;16.42;;;;;;;3.88;87.36;97104.75;4201194;28;20209;-82
2023/03/06 05:27:24;;;;;;;30.48;21.05;;;;;;;3.87;87.28;97102.28;4219488;28;20236;-82
2023/03/06 05:29:27;;;;;;;31.15;20.08;;;;;;;3.90;88.00;97099.53;4192770;28;20203;-82
2023/03/06 05:31:30;;;;;;;30.85;21.42;;;;;;;3.89;87.39;97096.13;4187927;28;20216;-82
2023/03/06 05:33:34;;;;;;;33.83;21.42;;;;;;;3.88;87.40;97099.59;4203884;28;20242;-82
2023/03/06 05:35:37;;;;;;;31.65;18.65;;;;;;;3.89;88.38;97098.69;4188189;28;20587;-82
2023/03/06 05:37:41;;;;;;;26.90;18.55;;;;;;;3.91;87.36;97096.84;4219530;28;20253;-82
2023/03/06 05:39:44;;;;;;;28.48;17.80;;;;;;;3.94;88.33;97099.25;4186571;28;20255;-82
2023/03/06 05:41:47;;;;;;;27.45;17.70;;;;;;;3.98;87.73;97090.41;4186314;28;20232;-84
2023/03/06 05:43:54;;;;;;;30.92;16.90;;;;;;;4.02;87.42;97091.06;4190702;28;20202;-82
2023/03/06 05:46:04;;;;;;;30.33;17.30;;;;;;;4.07;86.40;97095.03;4191438;28;20209;-81
2023/03/06 05:48:08;;;;;;;25.70;17.60;;;;;;;4.09;86.98;97092.34;4189164;28;20271;-81
2023/03/06 05:50:12;;;;;;;30.98;18.95;;;;;;;4.09;86.83;97092.34;4177345;28;20225;-81
2023/03/06 05:52:16;;;;;;;31.92;19.30;;;;;;;4.06;86.13;97095.09;4193557;28;20236;-81
2023/03/06 05:54:20;;;;;;;29.15;18.95;;;;;;;4.04;86.74;97096.97;4185722;28;20224;-81
2023/03/06 05:56:23;;;;;;;24.85;16.25;;;;;;;4.02;86.70;97098.81;4170870;28;20218;-81
2023/03/06 05:58:26;;;;;;;26.55;17.52;;;;;;;4.00;86.97;97095.47;4183650;28;20577;-81
2023/03/06 06:00:31;;;;;;;23.25;15.63;;;;;;;3.98;87.08;97092.16;4191498;28;20212;-81
2023/03/06 06:02:34;;;;;;;28.85;17.27;;;;;;;3.99;86.97;97094.66;4188831;28;20476;-81
2023/03/06 06:04:37;;;;;;;25.10;16.30;;;;;;;4.00;86.55;97098.03;4219902;28;20703;-82
2023/03/06 06:06:41;;;;;;;32.20;18.63;;;;;;;3.99;86.49;97096.41;4170873;28;20258;-83
2023/03/06 06:08:44;;;;;;;28.75;17.08;;;;;;;3.97;85.83;97098.22;4185596;28;20244;-83
2023/03/06 06:10:47;;;;;;;28.20;18.35;;;;;;;3.97;86.21;97093.06;4181834;28;20228;-83
2023/03/06 06:12:55;;;;;;;31.55;18.40;;;;;;;4.02;87.58;97104.78;4187802;28;20665;-80
2023/03/06 06:14:58;;;;;;;27.17;16.42;;;;;;;4.01;86.86;97102.28;4188518;28;20186;-81
2023/03/06 06:17:06;;;;;;;29.10;17.02;;;;;;;3.99;87.04;97099.00;4186167;28;20205;-82
2023/03/06 06:19:14;;;;;;;23.80;16.17;;;;;;;3.99;86.51;97097.22;4188699;28;20208;-83
2023/03/06 06:21:17;;;;;;;25.90;17.25;;;;;;;3.94;87.87;97093.25;4189912;28;20688;-84
2023/03/06 06:23:20;;;;;;;29.23;16.55;;;;;;;3.93;87.63;97091.59;4188155;28;20220;-84
2023/03/06 06:25:23;;;;;;;29.42;17.33;;;;;;;3.95;86.68;97097.50;4183327;28;20732;-83
2023/03/06 06:27:26;;;;;;;26.25;16.50;;;;;;;3.95;87.02;97094.91;4167216;28;20670;-84
2023/03/06 06:29:30;;;;;;;26.52;16.90;;;;;;;3.94;88.34;97099.25;4181358;28;20217;-84
2023/03/06 06:31:35;;;;;;;32.15;17.90;;;;;;;3.97;87.32;97103.38;4179341;28;20213;-85
2023/03/06 06:33:40;;;;;;;28.92;18.40;;;;;;;3.95;87.59;97098.31;4184975;28;20209;-83
2023/03/06 06:35:43;;;;;;;28.45;17.60;;;;;;;3.97;87.37;97105.97;4182506;28;20247;-83
2023/03/06 06:37:47;;;;;;;29.38;17.48;;;;;;;3.97;87.26;97099.06;4182231;28;20202;-84
2023/03/06 06:39:50;;;;;;;33.83;21.35;;;;;;;4.02;87.03;97101.38;4183194;28;20648;-84
2023/03/06 06:41:53;;;;;;;30.80;18.83;;;;;;;4.01;87.63;97094.56;4180333;28;20701;-84
2023/03/06 06:44:16;;;;;;;27.35;18.83;;;;;;;4.02;87.16;97097.06;4162531;28;20269;-84
2023/03/06 06:46:20;;;;;;;25.55;14.93;;;;;;;4.05;87.01;97098.63;4187736;28;20198;-84
2023/03/06 06:48:44;;;;;;;26.70;16.70;;;;;;;4.10;86.30;97106.91;4205657;28;20295;-84
2023/03/06 06:50:55;;;;;;;29.00;18.17;;;;;;;4.16;86.03;97099.63;4184047;28;20206;-86
2023/03/06 06:52:58;;;;;;;30.95;17.48;;;;;;;4.22;85.46;97105.28;4216780;28;20215;-86
2023/03/06 06:55:01;;;;;;;27.23;16.42;;;;;;;4.25;86.41;97104.25;4187685;28;20260;-87
2023/03/06 06:57:05;;;;;;;26.88;17.40;;;;;;;4.26;86.82;97101.59;4183790;28;20266;-87
2023/03/06 06:59:08;;;;;;;28.50;17.13;;;;;;;4.24;86.55;97106.00;4188831;28;20201;-87
2023/03/06 07:01:19;;;;;;;29.73;16.40;;;;;;;4.22;86.57;97105.28;4189441;28;20213;-87
2023/03/06 07:03:25;;;;;;;27.23;17.90;;;;;;;4.22;86.40;97110.44;4173004;28;20294;-87
2023/03/06 07:05:29;;;;;;;28.75;17.33;;;;;;;4.24;86.66;97111.19;4187748;28;20216;-86
2023/03/06 07:07:34;;;;;;;24.48;15.13;;;;;;;4.25;86.81;97106.84;4184003;28;20269;-86
2023/03/06 07:09:39;;;;;;;28.23;17.38;;;;;;;4.27;86.93;97112.75;4182227;28;20230;-87
2023/03/06 07:11:42;;;;;;;29.40;17.10;;;;;;;4.27;86.98;97108.41;4178061;28;20202;-86
2023/03/06 07:13:45;;;;;;;28.30;18.38;;;;;;;4.30;87.00;97113.41;4189154;28;20222;-88
2023/03/06 07:15:48;;;;;;;28.80;16.90;;;;;;;4.30;86.79;97112.53;4219639;28;20687;-86
2023/03/06 07:17:52;;;;;;;27.65;17.70;;;;;;;4.33;86.47;97115.78;4188445;28;20245;-84
2023/03/06 07:19:55;;;;;;;27.00;15.10;;;;;;;4.37;86.43;97119.00;4205462;28;20218;-85
2023/03/06 07:22:00;;;;;;;28.77;14.65;;;;;;;4.43;85.21;97118.66;4183866;28;20276;-85
2023/03/06 07:24:03;;;;;;;25.15;14.95;;;;;;;4.49;84.05;97124.25;4170280;28;20206;-85
2023/03/06 07:26:07;;;;;;;24.08;16.40;;;;;;;4.52;84.70;97120.69;4184148;28;20712;-84
2023/03/06 07:28:10;;;;;;;23.38;15.23;;;;;;;4.56;84.77;97120.41;4202164;28;20715;-82
2023/03/06 07:30:14;;;;;;;24.73;15.07;;;;;;;4.59;84.04;97129.72;4169154;28;20211;-84
2023/03/06 07:32:17;;;;;;;24.35;14.85;;;;;;;4.61;84.41;97133.84;4185243;28;20205;-86
2023/03/06 07:34:21;;;;;;;23.17;15.65;;;;;;;4.67;85.17;97133.47;4187043;28;20202;-84
2023/03/06 07:36:26;;;;;;;25.08;15.13;;;;;;;4.70;85.16;97128.13;4186168;28;20201;-85
2023/03/06 07:38:31;;;;;;;23.42;14.70;;;;;;;4.73;85.07;97131.34;4183705;28;20201;-83
2023/03/06 07:40:37;;;;;;;24.95;15.18;;;;;;;4.77;84.59;97139.75;4182647;28;20205;-85
2023/03/06 07:42:40;;;;;;;25.80;15.50;;;;;;;4.78;84.86;97137.09;4187390;28;20651;-86
2023/03/06 07:44:47;;;;;;;27.63;15.05;;;;;;;4.78;86.75;97141.41;4170252;28;20297;-85
2023/03/06 07:46:51;;;;;;;25.15;16.17;;;;;;;4.80;85.37;97134.41;4181902;28;20229;-86
2023/03/06 07:48:54;;;;;;;26.17;15.77;;;;;;;4.81;86.41;97144.66;4181252;28;20310;-86
2023/03/06 07:50:58;;;;;;;24.90;15.05;;;;;;;4.84;86.84;97143.59;4167035;28;20215;-84
2023/03/06 07:53:01;;;;;;;26.50;15.68;;;;;;;4.91;86.11;97142.31;4169630;28;20222;-85
2023/03/06 07:55:08;;;;;;;27.20;16.13;;;;;;;4.94;86.82;97148.13;4204048;28;20787;-82
2023/03/06 07:57:12;;;;;;;24.23;15.75;;;;;;;5.02;86.04;97147.66;4184378;28;20218;-82
2023/03/06 07:59:16;;;;;;;30.75;19.55;;;;;;;5.09;85.66;97148.94;4187970;28;20304;-82
2023/03/06 08:01:22;;;;;;;30.33;19.30;;;;;;;5.14;84.32;97155.47;4189469;28;20624;-84
2023/03/06 08:03:25;;;;;;;47.05;29.25;;;;;;;5.19;84.67;97158.63;4216889;28;20211;-84
2023/03/06 08:05:29;;;;;;;30.92;18.08;;;;;;;5.25;84.73;97155.66;4187992;28;20236;-84
2023/03/06 08:07:32;;;;;;;28.50;16.95;;;;;;;5.27;84.45;97152.03;4191549;28;20309;-84
2023/03/06 08:09:37;;;;;;;27.35;17.33;;;;;;;5.33;84.68;97153.41;4186249;28;20228;-84
2023/03/06 08:11:44;;;;;;;33.03;20.63;;;;;;;5.41;84.20;97156.31;4190607;28;20213;-85
2023/03/06 08:13:48;;;;;;;23.45;16.33;;;;;;;5.48;83.36;97160.19;4173894;28;20271;-84
2023/03/06 08:15:51;;;;;;;23.02;16.05;;;;;;;5.55;82.84;97157.13;4175015;28;20295;-85
2023/03/06 08:17:54;;;;;;;22.13;13.95;;;;;;;5.61;82.19;97156.75;4171238;28;20207;-86
2023/03/06 08:19:57;;;;;;;24.23;15.50;;;;;;;5.68;82.12;97153.66;4211636;28;20773;-86
2023/03/06 08:22:01;;;;;;;21.55;14.32;;;;;;;5.74;81.75;97147.28;4184512;28;20346;-85
2023/03/06 08:24:04;;;;;;;25.73;16.73;;;;;;;5.80;81.48;97158.09;4183619;28;20232;-86
2023/03/06 08:26:16;;;;;;;22.75;15.05;;;;;;;5.88;81.24;97155.81;4183275;28;20297;-85
2023/03/06 08:28:21;;;;;;;21.73;15.52;;;;;;;5.87;80.63;97161.09;4182578;28;20212;-85
2023/03/06 08:30:24;;;;;;;28.20;19.05;;;;;;;5.87;80.96;97161.91;4167061;28;20711;-85
2023/03/06 08:32:28;;;;;;;29.13;18.48;;;;;;;5.95;81.79;97164.81;4173973;28;20298;-85
2023/03/06 08:34:31;;;;;;;27.45;17.13;;;;;;;6.05;81.41;97163.31;4173097;28;20205;-85
2023/03/06 08:36:34;;;;;;;22.02;14.32;;;;;;;6.18;81.13;97172.75;4191517;28;20238;-85
2023/03/06 08:38:38;;;;;;;24.77;15.48;;;;;;;6.26;80.38;97173.06;4166764;28;20258;-85
2023/03/06 08:40:41;;;;;;;27.92;15.55;;;;;;;6.33;80.36;97176.94;4185139;28;20225;-85
2023/03/06 08:42:44;;;;;;;20.08;13.98;;;;;;;6.36;79.26;97168.97;4178592;28;20220;-85
2023/03/06 08:44:49;;;;;;;20.30;11.98;;;;;;;6.35;78.13;97167.28;4187065;28;20202;-85
2023/03/06 08:46:52;;;;;;;17.38;11.43;;;;;;;6.40;78.68;97169.56;4200506;28;20208;-85
2023/03/06 08:48:55;;;;;;;17.77;10.80;;;;;;;6.47;78.26;97166.47;4187046;28;20269;-85
2023/03/06 08:50:59;;;;;;;20.67;11.98;;;;;;;6.53;78.42;97171.25;4179259;28;20292;-85
2023/03/06 08:53:02;;;;;;;20.25;11.20;;;;;;;6.56;77.99;97171.03;4169233;28;20220;-85
2023/03/06 08:55:06;;;;;;;15.20;10.07;;;;;;;6.61;77.63;97168.97;4186805;28;20250;-85
2023/03/06 08:57:09;;;;;;;17.20;10.85;;;;;;;6.62;77.54;97170.63;4189946;28;20723;-86
2023/03/06 08:59:13;;;;;;;18.30;11.95;;;;;;;6.61;78.72;97174.13;4187097;28;20202;-85
2023/03/06 09:01:19;;;;;;;21.67;12.32;;;;;;;6.59;77.85;97171.66;4175975;28;20204;-85
2023/03/06 09:03:22;;;;;;;17.38;11.48;;;;;;;6.57;77.71;97180.47;4174064;28;20321;-85
2023/03/06 09:05:26;;;;;;;18.23;11.40;;;;;;;6.51;77.52;97174.84;4185295;28;20210;-86
2023/03/06 09:07:29;;;;;;;18.10;11.68;;;;;;;6.47;77.69;97176.84;4190796;28;20222;-85
2023/03/06 09:09:33;;;;;;;22.52;11.80;;;;;;;6.44;78.03;97176.22;4185788;28;20272;-85
2023/03/06 09:11:37;;;;;;;19.05;12.52;;;;;;;6.41;79.31;97179.81;4189548;28;20752;-85
2023/03/06 09:13:40;;;;;;;17.85;11.68;;;;;;;6.36;79.16;97175.88;4188440;28;20226;-85
2023/03/06 09:15:43;;;;;;;20.00;12.43;;;;;;;6.32;79.63;97179.63;4169775;28;20202;-85
2023/03/06 09:17:49;;;;;;;21.75;13.35;;;;;;;6.26;79.40;97180.03;4186997;28;20276;-85
2023/03/06 09:19:55;;;;;;;20.88;12.25;;;;;;;6.23;80.13;97173.28;4170278;28;20647;-85
2023/03/06 09:21:59;;;;;;;17.88;12.65;;;;;;;6.24;80.19;97172.34;4185456;28;20208;-86
2023/03/06 09:24:03;;;;;;;18.50;12.98;;;;;;;6.23;80.93;97180.22;4177245;28;20225;-85
2023/03/06 09:26:07;;;;;;;19.23;13.18;;;;;;;6.27;80.82;97176.47;4175116;28;20233;-85
2023/03/06 09:28:10;;;;;;;19.70;13.15;;;;;;;6.33;81.89;97176.94;4173459;28;20686;-85
2023/03/06 09:30:14;;;;;;;21.27;13.20;;;;;;;6.34;81.54;97175.16;4187992;28;20714;-85
2023/03/06 09:32:18;;;;;;;20.88;12.95;;;;;;;6.40;81.58;97172.16;4176983;28;20209;-85
2023/03/06 09:34:22;;;;;;;22.85;12.82;;;;;;;6.45;81.75;97181.28;4173624;28;20582;-85
2023/03/06 09:36:26;;;;;;;22.10;13.35;;;;;;;6.46;81.07;97182.13;4189046;28;20885;-85
2023/03/06 09:38:29;;;;;;;18.67;12.25;;;;;;;6.37;80.96;97180.94;4191227;28;20295;-84